sensor_id;sensor_type;location;lat;lon;timestamp;P1;durP1;ratioP1;P2;durP2;ratioP2
33738;SDS011;20063;51.730;11.110;2023-01-29T00:01:16;11.68;;;7.68;;
33738;SDS011;20063;51.730;11.110;2023-01-29T00:03:42;14.38;;;8.80;;
33738;SDS011;20063;51.730;11.110;2023-01-29T00:06:07;15.98;;;7.82;;
33738;SDS011;20063;51.730;11.110;2023-01-29T00:08:34;13.77;;;8.13;;
33738;SDS011;20063;51.730;11.110;2023-01-29T00:11:04;12.50;;;8.05;;
33738;SDS011;20063;51.730;11.110;2023-01-29T00:13:32;10.95;;;7.13;;
33738;SDS011;20063;51.730;11.110;2023-01-29T00:16:00;13.55;;;7.15;;
33738;SDS011;20063;51.730;11.110;2023-01-29T00:18:27;18.77;;;7.72;;
33738;SDS011;20063;51.730;11.110;2023-01-29T00:20:53;14.00;;;8.52;;
33738;SDS011;20063;51.730;11.110;2023-01-29T00:23:20;11.70;;;7.53;;
33738;SDS011;20063;51.730;11.110;2023-01-29T00:25:46;11.02;;;7.53;;
33738;SDS011;20063;51.730;11.110;2023-01-29T00:28:12;10.43;;;7.68;;
33738;SDS011;20063;51.730;11.110;2023-01-29T00:30:38;14.60;;;8.30;;
33738;SDS011;20063;51.730;11.110;2023-01-29T00:33:04;19.35;;;8.23;;
33738;SDS011;20063;51.730;11.110;2023-01-29T00:35:30;12.85;;;8.45;;
33738;SDS011;20063;51.730;11.110;2023-01-29T00:37:56;11.35;;;7.70;;
33738;SDS011;20063;51.730;11.110;2023-01-29T00:40:23;15.52;;;8.90;;
33738;SDS011;20063;51.730;11.110;2023-01-29T00:42:50;17.23;;;9.82;;
33738;SDS011;20063;51.730;11.110;2023-01-29T00:45:35;12.68;;;8.52;;
33738;SDS011;20063;51.730;11.110;2023-01-29T00:48:02;14.68;;;8.48;;
33738;SDS011;20063;51.730;11.110;2023-01-29T00:50:28;18.60;;;9.70;;
33738;SDS011;20063;51.730;11.110;2023-01-29T00:52:54;16.88;;;10.05;;
33738;SDS011;20063;51.730;11.110;2023-01-29T00:55:20;16.13;;;9.65;;
33738;SDS011;20063;51.730;11.110;2023-01-29T00:57:46;17.10;;;10.25;;
33738;SDS011;20063;51.730;11.110;2023-01-29T01:00:13;18.40;;;9.52;;
33738;SDS011;20063;51.730;11.110;2023-01-29T01:02:40;19.15;;;8.65;;
33738;SDS011;20063;51.730;11.110;2023-01-29T01:05:25;17.17;;;9.32;;
33738;SDS011;20063;51.730;11.110;2023-01-29T01:07:52;21.13;;;9.20;;
33738;SDS011;20063;51.730;11.110;2023-01-29T01:10:21;24.95;;;9.70;;
33738;SDS011;20063;51.730;11.110;2023-01-29T01:15:21;15.88;;;8.52;;
33738;SDS011;20063;51.730;11.110;2023-01-29T01:17:50;17.30;;;8.43;;
33738;SDS011;20063;51.730;11.110;2023-01-29T01:20:20;16.45;;;8.02;;
33738;SDS011;20063;51.730;11.110;2023-01-29T01:22:46;11.77;;;7.55;;
33738;SDS011;20063;51.730;11.110;2023-01-29T01:25:12;13.07;;;7.22;;
33738;SDS011;20063;51.730;11.110;2023-01-29T01:27:37;11.60;;;6.70;;
33738;SDS011;20063;51.730;11.110;2023-01-29T01:30:08;16.20;;;6.78;;
33738;SDS011;20063;51.730;11.110;2023-01-29T01:32:39;12.23;;;6.80;;
33738;SDS011;20063;51.730;11.110;2023-01-29T01:35:05;13.27;;;6.38;;
33738;SDS011;20063;51.730;11.110;2023-01-29T01:37:32;14.98;;;6.15;;
33738;SDS011;20063;51.730;11.110;2023-01-29T01:39:57;8.15;;;5.28;;
33738;SDS011;20063;51.730;11.110;2023-01-29T01:42:27;9.35;;;5.50;;
33738;SDS011;20063;51.730;11.110;2023-01-29T01:47:21;15.02;;;6.38;;
33738;SDS011;20063;51.730;11.110;2023-01-29T01:49:55;13.40;;;5.60;;
33738;SDS011;20063;51.730;11.110;2023-01-29T01:52:26;5.88;;;4.40;;
33738;SDS011;20063;51.730;11.110;2023-01-29T01:54:55;6.78;;;4.45;;
33738;SDS011;20063;51.730;11.110;2023-01-29T01:57:21;6.55;;;4.90;;
33738;SDS011;20063;51.730;11.110;2023-01-29T01:59:49;9.05;;;5.85;;
33738;SDS011;20063;51.730;11.110;2023-01-29T02:02:23;6.00;;;4.67;;
33738;SDS011;20063;51.730;11.110;2023-01-29T02:05:09;8.85;;;5.43;;
33738;SDS011;20063;51.730;11.110;2023-01-29T02:07:55;8.77;;;4.68;;
33738;SDS011;20063;51.730;11.110;2023-01-29T02:10:41;6.28;;;4.35;;
33738;SDS011;20063;51.730;11.110;2023-01-29T02:13:09;4.97;;;3.70;;
33738;SDS011;20063;51.730;11.110;2023-01-29T02:15:36;3.88;;;3.58;;
33738;SDS011;20063;51.730;11.110;2023-01-29T02:18:06;8.43;;;3.72;;
33738;SDS011;20063;51.730;11.110;2023-01-29T02:20:33;8.77;;;3.88;;
33738;SDS011;20063;51.730;11.110;2023-01-29T02:23:07;6.68;;;3.40;;
33738;SDS011;20063;51.730;11.110;2023-01-29T02:34:59;5.35;;;3.17;;
33738;SDS011;20063;51.730;11.110;2023-01-29T02:41:15;3.50;;;2.75;;
33738;SDS011;20063;51.730;11.110;2023-01-29T02:52:18;16.02;;;3.17;;
33738;SDS011;20063;51.730;11.110;2023-01-29T02:54:54;3.38;;;3.05;;
33738;SDS011;20063;51.730;11.110;2023-01-29T02:57:28;4.25;;;2.50;;
33738;SDS011;20063;51.730;11.110;2023-01-29T03:00:07;5.10;;;2.80;;
33738;SDS011;20063;51.730;11.110;2023-01-29T03:02:42;3.80;;;2.40;;
33738;SDS011;20063;51.730;11.110;2023-01-29T03:05:17;2.55;;;2.35;;
33738;SDS011;20063;51.730;11.110;2023-01-29T03:07:52;5.47;;;2.80;;
33738;SDS011;20063;51.730;11.110;2023-01-29T03:10:23;2.45;;;2.25;;
33738;SDS011;20063;51.730;11.110;2023-01-29T03:12:56;3.17;;;2.25;;
33738;SDS011;20063;51.730;11.110;2023-01-29T03:15:45;3.78;;;2.63;;
33738;SDS011;20063;51.730;11.110;2023-01-29T03:18:19;3.20;;;2.70;;
33738;SDS011;20063;51.730;11.110;2023-01-29T03:20:50;3.45;;;2.55;;
33738;SDS011;20063;51.730;11.110;2023-01-29T03:23:25;2.63;;;2.38;;
33738;SDS011;20063;51.730;11.110;2023-01-29T03:26:12;6.90;;;2.88;;
33738;SDS011;20063;51.730;11.110;2023-01-29T03:28:59;3.22;;;2.70;;
33738;SDS011;20063;51.730;11.110;2023-01-29T03:31:45;3.97;;;2.53;;
33738;SDS011;20063;51.730;11.110;2023-01-29T03:34:28;5.32;;;2.92;;
33738;SDS011;20063;51.730;11.110;2023-01-29T03:37:26;5.25;;;3.05;;
33738;SDS011;20063;51.730;11.110;2023-01-29T03:39:57;4.72;;;3.10;;
33738;SDS011;20063;51.730;11.110;2023-01-29T03:47:42;2.72;;;2.53;;
33738;SDS011;20063;51.730;11.110;2023-01-29T03:55:47;4.30;;;2.70;;
33738;SDS011;20063;51.730;11.110;2023-01-29T04:01:28;2.95;;;2.60;;
33738;SDS011;20063;51.730;11.110;2023-01-29T04:04:11;5.65;;;3.22;;
33738;SDS011;20063;51.730;11.110;2023-01-29T04:06:43;3.95;;;3.08;;
33738;SDS011;20063;51.730;11.110;2023-01-29T04:09:15;7.53;;;2.88;;
33738;SDS011;20063;51.730;11.110;2023-01-29T04:11:54;3.97;;;2.50;;
33738;SDS011;20063;51.730;11.110;2023-01-29T04:14:26;6.40;;;3.65;;
33738;SDS011;20063;51.730;11.110;2023-01-29T04:16:53;3.60;;;2.90;;
33738;SDS011;20063;51.730;11.110;2023-01-29T04:19:21;3.17;;;2.88;;
33738;SDS011;20063;51.730;11.110;2023-01-29T04:21:48;5.95;;;3.50;;
33738;SDS011;20063;51.730;11.110;2023-01-29T04:24:17;4.85;;;2.55;;
33738;SDS011;20063;51.730;11.110;2023-01-29T04:37:11;7.20;;;3.90;;
33738;SDS011;20063;51.730;11.110;2023-01-29T04:40:12;5.38;;;3.65;;
33738;SDS011;20063;51.730;11.110;2023-01-29T04:48:37;9.98;;;3.42;;
33738;SDS011;20063;51.730;11.110;2023-01-29T04:54:18;4.35;;;3.28;;
33738;SDS011;20063;51.730;11.110;2023-01-29T04:59:35;6.40;;;3.20;;
33738;SDS011;20063;51.730;11.110;2023-01-29T05:07:43;4.38;;;2.88;;
33738;SDS011;20063;51.730;11.110;2023-01-29T05:10:10;8.63;;;2.90;;
33738;SDS011;20063;51.730;11.110;2023-01-29T05:12:38;4.55;;;2.70;;
33738;SDS011;20063;51.730;11.110;2023-01-29T05:15:08;6.38;;;3.08;;
33738;SDS011;20063;51.730;11.110;2023-01-29T05:17:38;5.47;;;2.63;;
33738;SDS011;20063;51.730;11.110;2023-01-29T05:20:04;8.98;;;3.78;;
33738;SDS011;20063;51.730;11.110;2023-01-29T05:22:31;3.15;;;2.50;;
33738;SDS011;20063;51.730;11.110;2023-01-29T05:24:57;6.88;;;3.08;;
33738;SDS011;20063;51.730;11.110;2023-01-29T05:27:28;5.47;;;2.20;;
33738;SDS011;20063;51.730;11.110;2023-01-29T05:30:16;7.35;;;2.50;;
33738;SDS011;20063;51.730;11.110;2023-01-29T05:32:42;5.82;;;2.50;;
33738;SDS011;20063;51.730;11.110;2023-01-29T05:35:07;2.97;;;2.45;;
33738;SDS011;20063;51.730;11.110;2023-01-29T05:37:33;4.82;;;2.53;;
33738;SDS011;20063;51.730;11.110;2023-01-29T05:39:59;4.55;;;2.50;;
33738;SDS011;20063;51.730;11.110;2023-01-29T05:42:24;5.90;;;2.47;;
33738;SDS011;20063;51.730;11.110;2023-01-29T05:44:50;3.08;;;2.28;;
33738;SDS011;20063;51.730;11.110;2023-01-29T05:47:17;3.80;;;2.78;;
33738;SDS011;20063;51.730;11.110;2023-01-29T05:49:44;4.22;;;2.60;;
33738;SDS011;20063;51.730;11.110;2023-01-29T05:52:09;8.90;;;3.00;;
33738;SDS011;20063;51.730;11.110;2023-01-29T05:54:35;3.67;;;2.67;;
33738;SDS011;20063;51.730;11.110;2023-01-29T05:57:00;3.38;;;2.80;;
33738;SDS011;20063;51.730;11.110;2023-01-29T05:59:26;4.60;;;3.13;;
33738;SDS011;20063;51.730;11.110;2023-01-29T06:01:51;6.93;;;3.55;;
33738;SDS011;20063;51.730;11.110;2023-01-29T06:04:17;5.57;;;2.92;;
33738;SDS011;20063;51.730;11.110;2023-01-29T06:06:43;6.53;;;2.78;;
33738;SDS011;20063;51.730;11.110;2023-01-29T06:09:09;3.65;;;2.75;;
33738;SDS011;20063;51.730;11.110;2023-01-29T06:11:35;5.55;;;2.78;;
33738;SDS011;20063;51.730;11.110;2023-01-29T06:14:01;6.93;;;3.53;;
33738;SDS011;20063;51.730;11.110;2023-01-29T06:16:27;5.85;;;3.28;;
33738;SDS011;20063;51.730;11.110;2023-01-29T06:18:52;2.95;;;2.60;;
33738;SDS011;20063;51.730;11.110;2023-01-29T06:21:18;9.35;;;4.80;;
33738;SDS011;20063;51.730;11.110;2023-01-29T06:23:43;5.50;;;4.20;;
33738;SDS011;20063;51.730;11.110;2023-01-29T06:26:10;9.30;;;4.30;;
33738;SDS011;20063;51.730;11.110;2023-01-29T06:28:37;9.75;;;4.35;;
33738;SDS011;20063;51.730;11.110;2023-01-29T06:31:04;5.13;;;3.88;;
33738;SDS011;20063;51.730;11.110;2023-01-29T06:33:30;50.95;;;18.58;;
33738;SDS011;20063;51.730;11.110;2023-01-29T06:36:00;65.03;;;21.33;;
33738;SDS011;20063;51.730;11.110;2023-01-29T06:38:27;71.80;;;22.48;;
33738;SDS011;20063;51.730;11.110;2023-01-29T06:40:53;15.68;;;5.90;;
33738;SDS011;20063;51.730;11.110;2023-01-29T06:43:20;10.63;;;5.13;;
33738;SDS011;20063;51.730;11.110;2023-01-29T06:45:49;8.60;;;5.18;;
33738;SDS011;20063;51.730;11.110;2023-01-29T06:48:16;6.53;;;3.63;;
33738;SDS011;20063;51.730;11.110;2023-01-29T06:50:43;7.20;;;4.45;;
33738;SDS011;20063;51.730;11.110;2023-01-29T06:53:08;5.07;;;3.80;;
33738;SDS011;20063;51.730;11.110;2023-01-29T06:55:35;9.48;;;5.45;;
33738;SDS011;20063;51.730;11.110;2023-01-29T06:58:07;11.52;;;5.68;;
33738;SDS011;20063;51.730;11.110;2023-01-29T07:00:34;10.13;;;5.50;;
33738;SDS011;20063;51.730;11.110;2023-01-29T07:03:02;9.93;;;5.38;;
33738;SDS011;20063;51.730;11.110;2023-01-29T07:05:28;9.63;;;5.82;;
33738;SDS011;20063;51.730;11.110;2023-01-29T07:07:55;13.27;;;5.65;;
33738;SDS011;20063;51.730;11.110;2023-01-29T07:10:20;5.90;;;4.97;;
33738;SDS011;20063;51.730;11.110;2023-01-29T07:12:46;8.88;;;5.35;;
33738;SDS011;20063;51.730;11.110;2023-01-29T07:15:12;13.23;;;7.43;;
33738;SDS011;20063;51.730;11.110;2023-01-29T07:17:38;12.45;;;6.88;;
33738;SDS011;20063;51.730;11.110;2023-01-29T07:20:04;12.60;;;5.80;;
33738;SDS011;20063;51.730;11.110;2023-01-29T07:22:32;6.43;;;4.80;;
33738;SDS011;20063;51.730;11.110;2023-01-29T07:24:57;9.77;;;4.80;;
33738;SDS011;20063;51.730;11.110;2023-01-29T07:27:23;7.53;;;5.18;;
33738;SDS011;20063;51.730;11.110;2023-01-29T07:29:48;10.57;;;5.78;;
33738;SDS011;20063;51.730;11.110;2023-01-29T07:32:14;12.90;;;6.20;;
33738;SDS011;20063;51.730;11.110;2023-01-29T07:34:39;11.32;;;6.70;;
33738;SDS011;20063;51.730;11.110;2023-01-29T07:37:05;9.23;;;6.28;;
33738;SDS011;20063;51.730;11.110;2023-01-29T07:39:31;12.80;;;7.20;;
33738;SDS011;20063;51.730;11.110;2023-01-29T07:41:57;12.48;;;8.30;;
33738;SDS011;20063;51.730;11.110;2023-01-29T07:44:22;16.00;;;9.95;;
33738;SDS011;20063;51.730;11.110;2023-01-29T07:46:48;13.30;;;8.73;;
33738;SDS011;20063;51.730;11.110;2023-01-29T07:49:14;17.98;;;9.25;;
33738;SDS011;20063;51.730;11.110;2023-01-29T07:51:40;17.55;;;10.02;;
33738;SDS011;20063;51.730;11.110;2023-01-29T07:54:05;16.25;;;8.43;;
33738;SDS011;20063;51.730;11.110;2023-01-29T07:56:31;13.65;;;8.70;;
33738;SDS011;20063;51.730;11.110;2023-01-29T07:58:57;17.33;;;10.02;;
33738;SDS011;20063;51.730;11.110;2023-01-29T08:01:22;16.98;;;10.60;;
33738;SDS011;20063;51.730;11.110;2023-01-29T08:03:48;18.15;;;10.85;;
33738;SDS011;20063;51.730;11.110;2023-01-29T08:06:13;18.35;;;10.35;;
33738;SDS011;20063;51.730;11.110;2023-01-29T08:08:39;23.40;;;10.65;;
33738;SDS011;20063;51.730;11.110;2023-01-29T08:11:04;20.65;;;11.95;;
33738;SDS011;20063;51.730;11.110;2023-01-29T08:13:31;20.15;;;12.50;;
33738;SDS011;20063;51.730;11.110;2023-01-29T08:16:01;18.65;;;11.43;;
33738;SDS011;20063;51.730;11.110;2023-01-29T08:18:27;21.75;;;12.45;;
33738;SDS011;20063;51.730;11.110;2023-01-29T08:20:57;31.05;;;14.40;;
33738;SDS011;20063;51.730;11.110;2023-01-29T08:23:26;21.58;;;13.07;;
33738;SDS011;20063;51.730;11.110;2023-01-29T08:25:51;26.08;;;14.98;;
33738;SDS011;20063;51.730;11.110;2023-01-29T08:28:17;26.08;;;13.77;;
33738;SDS011;20063;51.730;11.110;2023-01-29T08:30:43;36.55;;;17.60;;
33738;SDS011;20063;51.730;11.110;2023-01-29T08:33:08;25.17;;;13.63;;
33738;SDS011;20063;51.730;11.110;2023-01-29T08:35:34;34.17;;;14.05;;
33738;SDS011;20063;51.730;11.110;2023-01-29T08:38:01;26.05;;;13.85;;
33738;SDS011;20063;51.730;11.110;2023-01-29T08:40:28;22.48;;;12.93;;
33738;SDS011;20063;51.730;11.110;2023-01-29T08:42:56;21.48;;;11.38;;
33738;SDS011;20063;51.730;11.110;2023-01-29T08:45:23;26.42;;;13.57;;
33738;SDS011;20063;51.730;11.110;2023-01-29T08:47:48;25.13;;;12.85;;
33738;SDS011;20063;51.730;11.110;2023-01-29T08:50:15;27.85;;;10.73;;
33738;SDS011;20063;51.730;11.110;2023-01-29T08:52:41;21.90;;;10.20;;
33738;SDS011;20063;51.730;11.110;2023-01-29T08:55:07;20.20;;;10.65;;
33738;SDS011;20063;51.730;11.110;2023-01-29T08:57:33;23.23;;;11.68;;
33738;SDS011;20063;51.730;11.110;2023-01-29T08:59:59;17.92;;;10.45;;
33738;SDS011;20063;51.730;11.110;2023-01-29T09:02:25;16.95;;;10.43;;
33738;SDS011;20063;51.730;11.110;2023-01-29T09:04:50;20.00;;;10.27;;
33738;SDS011;20063;51.730;11.110;2023-01-29T09:07:16;23.25;;;12.00;;
33738;SDS011;20063;51.730;11.110;2023-01-29T09:09:41;24.85;;;12.80;;
33738;SDS011;20063;51.730;11.110;2023-01-29T09:12:07;25.85;;;13.85;;
33738;SDS011;20063;51.730;11.110;2023-01-29T09:14:32;29.63;;;13.73;;
33738;SDS011;20063;51.730;11.110;2023-01-29T09:16:58;27.13;;;14.65;;
33738;SDS011;20063;51.730;11.110;2023-01-29T09:19:23;25.60;;;13.65;;
33738;SDS011;20063;51.730;11.110;2023-01-29T09:21:49;24.35;;;12.73;;
33738;SDS011;20063;51.730;11.110;2023-01-29T09:24:14;31.08;;;14.63;;
33738;SDS011;20063;51.730;11.110;2023-01-29T09:26:40;23.33;;;13.13;;
33738;SDS011;20063;51.730;11.110;2023-01-29T09:29:05;24.30;;;13.98;;
33738;SDS011;20063;51.730;11.110;2023-01-29T09:31:33;22.30;;;13.25;;
33738;SDS011;20063;51.730;11.110;2023-01-29T09:33:59;22.77;;;13.93;;
33738;SDS011;20063;51.730;11.110;2023-01-29T09:36:24;27.67;;;14.15;;
33738;SDS011;20063;51.730;11.110;2023-01-29T09:38:50;28.52;;;14.23;;
33738;SDS011;20063;51.730;11.110;2023-01-29T09:43:54;27.42;;;13.50;;
33738;SDS011;20063;51.730;11.110;2023-01-29T09:49:17;32.78;;;14.60;;
33738;SDS011;20063;51.730;11.110;2023-01-29T09:51:51;26.75;;;14.77;;
33738;SDS011;20063;51.730;11.110;2023-01-29T09:54:22;51.08;;;24.70;;
33738;SDS011;20063;51.730;11.110;2023-01-29T09:56:52;24.20;;;13.32;;
33738;SDS011;20063;51.730;11.110;2023-01-29T09:59:21;25.25;;;14.75;;
33738;SDS011;20063;51.730;11.110;2023-01-29T10:13:14;23.23;;;13.18;;
33738;SDS011;20063;51.730;11.110;2023-01-29T10:16:10;24.02;;;14.10;;
33738;SDS011;20063;51.730;11.110;2023-01-29T10:24:21;31.45;;;15.05;;
33738;SDS011;20063;51.730;11.110;2023-01-29T10:26:41;32.28;;;15.50;;
33738;SDS011;20063;51.730;11.110;2023-01-29T10:29:09;27.63;;;15.75;;
33738;SDS011;20063;51.730;11.110;2023-01-29T10:31:42;27.27;;;13.70;;
33738;SDS011;20063;51.730;11.110;2023-01-29T10:36:47;27.02;;;15.02;;
33738;SDS011;20063;51.730;11.110;2023-01-29T10:39:14;28.38;;;15.30;;
33738;SDS011;20063;51.730;11.110;2023-01-29T10:44:30;29.60;;;15.55;;
33738;SDS011;20063;51.730;11.110;2023-01-29T11:00:16;33.38;;;13.35;;
33738;SDS011;20063;51.730;11.110;2023-01-29T11:02:16;23.08;;;10.82;;
33738;SDS011;20063;51.730;11.110;2023-01-29T11:04:45;27.58;;;12.15;;
33738;SDS011;20063;51.730;11.110;2023-01-29T11:07:11;21.15;;;12.65;;
33738;SDS011;20063;51.730;11.110;2023-01-29T11:09:55;25.08;;;13.43;;
33738;SDS011;20063;51.730;11.110;2023-01-29T11:12:28;24.08;;;12.00;;
33738;SDS011;20063;51.730;11.110;2023-01-29T11:20:38;25.85;;;13.80;;
33738;SDS011;20063;51.730;11.110;2023-01-29T11:23:18;27.42;;;14.05;;
33738;SDS011;20063;51.730;11.110;2023-01-29T11:25:52;23.58;;;11.98;;
33738;SDS011;20063;51.730;11.110;2023-01-29T11:31:18;25.13;;;13.95;;
33738;SDS011;20063;51.730;11.110;2023-01-29T11:34:00;31.92;;;13.65;;
33738;SDS011;20063;51.730;11.110;2023-01-29T11:36:45;26.13;;;13.77;;
33738;SDS011;20063;51.730;11.110;2023-01-29T11:39:26;29.08;;;15.73;;
33738;SDS011;20063;51.730;11.110;2023-01-29T11:42:00;35.38;;;14.68;;
33738;SDS011;20063;51.730;11.110;2023-01-29T11:47:25;24.70;;;14.30;;
33738;SDS011;20063;51.730;11.110;2023-01-29T11:49:54;24.20;;;14.18;;
33738;SDS011;20063;51.730;11.110;2023-01-29T11:55:17;28.58;;;13.98;;
33738;SDS011;20063;51.730;11.110;2023-01-29T11:57:50;31.02;;;13.48;;
33738;SDS011;20063;51.730;11.110;2023-01-29T12:00:26;24.08;;;13.45;;
33738;SDS011;20063;51.730;11.110;2023-01-29T12:03:04;22.60;;;12.63;;
33738;SDS011;20063;51.730;11.110;2023-01-29T12:05:37;27.92;;;15.18;;
33738;SDS011;20063;51.730;11.110;2023-01-29T12:08:09;26.42;;;15.25;;
33738;SDS011;20063;51.730;11.110;2023-01-29T12:10:40;30.27;;;16.70;;
33738;SDS011;20063;51.730;11.110;2023-01-29T12:15:43;30.38;;;16.15;;
33738;SDS011;20063;51.730;11.110;2023-01-29T12:18:15;26.42;;;14.45;;
33738;SDS011;20063;51.730;11.110;2023-01-29T12:21:10;27.55;;;15.80;;
33738;SDS011;20063;51.730;11.110;2023-01-29T12:26:32;28.75;;;16.13;;
33738;SDS011;20063;51.730;11.110;2023-01-29T12:29:14;25.23;;;15.13;;
33738;SDS011;20063;51.730;11.110;2023-01-29T12:34:54;29.30;;;16.58;;
33738;SDS011;20063;51.730;11.110;2023-01-29T12:40:24;35.70;;;17.20;;
33738;SDS011;20063;51.730;11.110;2023-01-29T12:42:56;32.97;;;19.13;;
33738;SDS011;20063;51.730;11.110;2023-01-29T12:45:28;31.90;;;18.40;;
33738;SDS011;20063;51.730;11.110;2023-01-29T12:47:58;36.33;;;18.25;;
33738;SDS011;20063;51.730;11.110;2023-01-29T12:50:31;41.10;;;20.05;;
33738;SDS011;20063;51.730;11.110;2023-01-29T12:55:28;36.88;;;20.15;;
33738;SDS011;20063;51.730;11.110;2023-01-29T12:58:00;34.00;;;18.38;;
33738;SDS011;20063;51.730;11.110;2023-01-29T13:00:37;31.17;;;18.85;;
33738;SDS011;20063;51.730;11.110;2023-01-29T13:03:29;32.85;;;18.50;;
33738;SDS011;20063;51.730;11.110;2023-01-29T13:06:06;34.97;;;18.75;;
33738;SDS011;20063;51.730;11.110;2023-01-29T13:08:36;33.42;;;18.27;;
33738;SDS011;20063;51.730;11.110;2023-01-29T13:11:10;38.58;;;17.67;;
33738;SDS011;20063;51.730;11.110;2023-01-29T13:13:43;34.80;;;19.40;;
33738;SDS011;20063;51.730;11.110;2023-01-29T13:16:18;30.85;;;17.58;;
33738;SDS011;20063;51.730;11.110;2023-01-29T13:18:54;39.33;;;19.27;;
33738;SDS011;20063;51.730;11.110;2023-01-29T13:24:17;36.72;;;18.70;;
33738;SDS011;20063;51.730;11.110;2023-01-29T13:26:44;40.60;;;19.48;;
33738;SDS011;20063;51.730;11.110;2023-01-29T13:29:25;37.33;;;19.67;;
33738;SDS011;20063;51.730;11.110;2023-01-29T13:32:02;32.58;;;19.23;;
33738;SDS011;20063;51.730;11.110;2023-01-29T13:34:33;42.38;;;20.42;;
33738;SDS011;20063;51.730;11.110;2023-01-29T13:37:11;46.85;;;22.23;;
33738;SDS011;20063;51.730;11.110;2023-01-29T13:40:02;32.00;;;17.73;;
33738;SDS011;20063;51.730;11.110;2023-01-29T13:45:16;34.55;;;19.17;;
33738;SDS011;20063;51.730;11.110;2023-01-29T13:47:43;40.92;;;21.35;;
33738;SDS011;20063;51.730;11.110;2023-01-29T13:50:17;30.33;;;17.42;;
33738;SDS011;20063;51.730;11.110;2023-01-29T13:52:44;33.50;;;17.83;;
33738;SDS011;20063;51.730;11.110;2023-01-29T13:55:31;32.58;;;16.65;;
33738;SDS011;20063;51.730;11.110;2023-01-29T13:58:03;32.97;;;16.58;;
33738;SDS011;20063;51.730;11.110;2023-01-29T14:08:03;26.02;;;16.33;;
33738;SDS011;20063;51.730;11.110;2023-01-29T14:10:30;26.02;;;15.07;;
33738;SDS011;20063;51.730;11.110;2023-01-29T14:18:34;28.73;;;15.23;;
33738;SDS011;20063;51.730;11.110;2023-01-29T14:21:19;26.25;;;14.65;;
33738;SDS011;20063;51.730;11.110;2023-01-29T14:23:52;34.70;;;15.63;;
33738;SDS011;20063;51.730;11.110;2023-01-29T14:26:25;32.78;;;16.38;;
33738;SDS011;20063;51.730;11.110;2023-01-29T14:28:56;27.13;;;14.90;;
33738;SDS011;20063;51.730;11.110;2023-01-29T14:34:13;26.42;;;14.38;;
33738;SDS011;20063;51.730;11.110;2023-01-29T14:36:43;30.92;;;14.57;;
33738;SDS011;20063;51.730;11.110;2023-01-29T14:47:51;22.17;;;13.32;;
33738;SDS011;20063;51.730;11.110;2023-01-29T14:55:39;24.05;;;13.43;;
33738;SDS011;20063;51.730;11.110;2023-01-29T14:59:03;22.73;;;12.32;;
33738;SDS011;20063;51.730;11.110;2023-01-29T15:01:13;28.17;;;13.48;;
33738;SDS011;20063;51.730;11.110;2023-01-29T15:03:46;21.52;;;11.40;;
33738;SDS011;20063;51.730;11.110;2023-01-29T15:06:27;21.95;;;11.48;;
33738;SDS011;20063;51.730;11.110;2023-01-29T15:09:14;23.95;;;12.00;;
33738;SDS011;20063;51.730;11.110;2023-01-29T15:11:55;22.50;;;12.10;;
33738;SDS011;20063;51.730;11.110;2023-01-29T15:14:31;19.17;;;10.73;;
33738;SDS011;20063;51.730;11.110;2023-01-29T15:23:29;19.00;;;11.57;;
33738;SDS011;20063;51.730;11.110;2023-01-29T15:25:58;20.02;;;11.25;;
33738;SDS011;20063;51.730;11.110;2023-01-29T15:28:30;20.35;;;11.18;;
33738;SDS011;20063;51.730;11.110;2023-01-29T15:30:58;16.75;;;11.25;;
33738;SDS011;20063;51.730;11.110;2023-01-29T15:33:26;19.65;;;10.98;;
33738;SDS011;20063;51.730;11.110;2023-01-29T15:39:15;16.95;;;10.77;;
33738;SDS011;20063;51.730;11.110;2023-01-29T15:41:46;17.08;;;9.38;;
33738;SDS011;20063;51.730;11.110;2023-01-29T15:46:50;24.30;;;11.20;;
33738;SDS011;20063;51.730;11.110;2023-01-29T15:49:37;16.58;;;11.10;;
33738;SDS011;20063;51.730;11.110;2023-01-29T15:52:46;17.30;;;10.45;;
33738;SDS011;20063;51.730;11.110;2023-01-29T15:54:55;15.38;;;10.43;;
33738;SDS011;20063;51.730;11.110;2023-01-29T15:57:29;17.33;;;11.30;;
33738;SDS011;20063;51.730;11.110;2023-01-29T16:00:05;21.63;;;11.18;;
33738;SDS011;20063;51.730;11.110;2023-01-29T16:02:41;20.13;;;12.48;;
33738;SDS011;20063;51.730;11.110;2023-01-29T16:05:17;21.47;;;11.83;;
33738;SDS011;20063;51.730;11.110;2023-01-29T16:07:54;26.40;;;12.48;;
33738;SDS011;20063;51.730;11.110;2023-01-29T16:10:21;19.98;;;12.35;;
33738;SDS011;20063;51.730;11.110;2023-01-29T16:12:49;22.35;;;12.05;;
33738;SDS011;20063;51.730;11.110;2023-01-29T16:15:19;18.85;;;11.05;;
33738;SDS011;20063;51.730;11.110;2023-01-29T16:17:50;18.98;;;11.65;;
33738;SDS011;20063;51.730;11.110;2023-01-29T16:20:28;21.05;;;13.10;;
33738;SDS011;20063;51.730;11.110;2023-01-29T16:22:56;37.67;;;17.00;;
33738;SDS011;20063;51.730;11.110;2023-01-29T16:25:23;21.45;;;12.55;;
33738;SDS011;20063;51.730;11.110;2023-01-29T16:27:48;19.92;;;12.50;;
33738;SDS011;20063;51.730;11.110;2023-01-29T16:30:16;19.23;;;11.88;;
33738;SDS011;20063;51.730;11.110;2023-01-29T16:32:42;28.08;;;13.25;;
33738;SDS011;20063;51.730;11.110;2023-01-29T16:35:12;23.75;;;13.05;;
33738;SDS011;20063;51.730;11.110;2023-01-29T16:37:40;25.23;;;13.23;;
33738;SDS011;20063;51.730;11.110;2023-01-29T16:40:11;17.75;;;11.73;;
33738;SDS011;20063;51.730;11.110;2023-01-29T16:42:39;18.00;;;11.95;;
33738;SDS011;20063;51.730;11.110;2023-01-29T16:45:23;21.13;;;12.43;;
33738;SDS011;20063;51.730;11.110;2023-01-29T16:47:58;21.67;;;13.48;;
33738;SDS011;20063;51.730;11.110;2023-01-29T16:50:30;20.17;;;12.82;;
33738;SDS011;20063;51.730;11.110;2023-01-29T16:53:11;19.67;;;11.38;;
33738;SDS011;20063;51.730;11.110;2023-01-29T16:55:42;18.42;;;12.23;;
33738;SDS011;20063;51.730;11.110;2023-01-29T16:58:20;23.17;;;14.77;;
33738;SDS011;20063;51.730;11.110;2023-01-29T17:00:52;22.23;;;13.48;;
33738;SDS011;20063;51.730;11.110;2023-01-29T17:03:22;22.25;;;13.35;;
33738;SDS011;20063;51.730;11.110;2023-01-29T17:05:50;23.30;;;13.18;;
33738;SDS011;20063;51.730;11.110;2023-01-29T17:08:29;19.38;;;12.45;;
33738;SDS011;20063;51.730;11.110;2023-01-29T17:10:57;27.30;;;12.52;;
33738;SDS011;20063;51.730;11.110;2023-01-29T17:18:59;23.75;;;12.68;;
33738;SDS011;20063;51.730;11.110;2023-01-29T17:21:25;21.38;;;12.20;;
33738;SDS011;20063;51.730;11.110;2023-01-29T17:23:52;20.38;;;11.73;;
33738;SDS011;20063;51.730;11.110;2023-01-29T17:26:18;16.35;;;11.13;;
33738;SDS011;20063;51.730;11.110;2023-01-29T17:28:44;17.25;;;11.48;;
33738;SDS011;20063;51.730;11.110;2023-01-29T17:31:10;22.20;;;12.80;;
33738;SDS011;20063;51.730;11.110;2023-01-29T17:33:37;17.00;;;10.43;;
33738;SDS011;20063;51.730;11.110;2023-01-29T17:36:12;17.17;;;10.23;;
33738;SDS011;20063;51.730;11.110;2023-01-29T17:38:39;19.10;;;10.02;;
33738;SDS011;20063;51.730;11.110;2023-01-29T17:41:17;17.38;;;10.63;;
33738;SDS011;20063;51.730;11.110;2023-01-29T17:43:48;17.42;;;10.48;;
33738;SDS011;20063;51.730;11.110;2023-01-29T17:46:14;14.95;;;9.77;;
33738;SDS011;20063;51.730;11.110;2023-01-29T17:48:41;17.90;;;10.40;;